createdAt,value
2016-05-12T00:00:23.476Z,34.05
2016-05-12T00:01:23.933Z,33.74
2016-05-12T00:02:23.685Z,34.12
2016-05-12T00:03:23.719Z,33.93
2016-05-12T00:04:23.737Z,33.84
2016-05-12T00:05:23.614Z,33.93
2016-05-12T00:06:23.789Z,33.54
2016-05-12T00:07:23.823Z,33.64
2016-05-12T00:08:23.841Z,33.54
2016-05-12T00:09:23.875Z,33.84
2016-05-12T00:10:23.893Z,33.74
2016-05-12T00:11:23.928Z,34.22
2016-05-12T00:12:23.790Z,34.61
2016-05-12T00:13:23.980Z,34.03
2016-05-12T00:14:23.843Z,33.93
2016-05-12T00:15:24.016Z,34.12
2016-05-12T00:16:23.910Z,34.51
2016-05-12T00:17:24.084Z,34.12
2016-05-12T00:18:24.103Z,34.12
2016-05-12T00:19:23.981Z,34.22
2016-05-12T00:20:24.155Z,34.12
2016-05-12T00:21:24.189Z,34.22
2016-05-12T00:22:24.207Z,33.93
2016-05-12T00:23:24.084Z,34.7
2016-05-12T00:24:24.260Z,34.41
2016-05-12T00:25:24.294Z,34.61
2016-05-12T00:26:24.312Z,34.61
2016-05-12T00:27:24.345Z,34.51
2016-05-12T00:28:24.380Z,34.51
2016-05-12T00:29:24.397Z,34.49
2016-05-12T00:30:24.431Z,34.61
2016-05-12T00:31:24.450Z,34.49
2016-05-12T00:32:24.469Z,34.68
2016-05-12T00:33:24.503Z,34.88
2016-05-12T00:34:24.536Z,34.89
2016-05-12T00:35:24.555Z,34.88
2016-05-12T00:36:24.589Z,34.88
2016-05-12T00:37:24.607Z,35.06
2016-05-12T00:38:24.625Z,35.06
2016-05-12T00:39:24.660Z,34.97
2016-05-12T00:40:24.678Z,35.16
2016-05-12T00:41:24.711Z,35.26
2016-05-12T00:42:24.730Z,35.06
2016-05-12T00:43:24.763Z,35.06
2016-05-12T00:44:24.782Z,35.26
2016-05-12T00:45:24.831Z,35.16
2016-05-12T00:46:24.740Z,35.16
2016-05-12T00:47:24.885Z,35.26
2016-05-12T00:48:24.730Z,35.26
2016-05-12T00:49:24.921Z,35.26
2016-05-12T00:50:24.939Z,35.26
2016-05-12T00:51:24.973Z,35.06
2016-05-12T00:52:24.990Z,35.06
2016-05-12T00:53:25.025Z,35.26
2016-05-12T00:54:25.059Z,35.36
2016-05-12T00:55:25.078Z,35.16
2016-05-12T00:56:25.111Z,35.36
2016-05-12T00:57:25.129Z,35.26
2016-05-12T00:58:25.164Z,35.43
2016-05-12T00:59:25.182Z,35.36
2016-05-12T01:00:25.200Z,35.26
2016-05-12T01:01:25.249Z,35.16
2016-05-12T01:02:25.362Z,35.26
2016-05-12T01:03:25.287Z,35.16
2016-05-12T01:04:25.320Z,35.24
2016-05-12T01:05:25.182Z,35.36
2016-05-12T01:06:25.372Z,35.14
2016-05-12T01:07:25.391Z,35.26
2016-05-12T01:08:25.409Z,35.24
2016-05-12T01:09:25.444Z,35.63
2016-05-12T01:10:25.461Z,35.55
2016-05-12T01:11:25.496Z,35.53
2016-05-12T01:12:25.513Z,35.53
2016-05-12T01:13:25.547Z,35.63
2016-05-12T01:14:25.566Z,35.53
2016-05-12T01:15:25.600Z,35.43
2016-05-12T01:16:25.806Z,35.34
2016-05-12T01:17:25.652Z,35.63
2016-05-12T01:18:25.670Z,36.2
2016-05-12T01:19:25.704Z,36.4
2016-05-12T01:20:25.723Z,36.2
2016-05-12T01:21:25.740Z,36.2
2016-05-12T01:22:25.776Z,36.2
2016-05-12T01:23:25.793Z,36.2
2016-05-12T01:24:25.827Z,36.2
2016-05-12T01:25:25.846Z,36.2
2016-05-12T01:26:25.879Z,36.2
2016-05-12T01:27:25.898Z,36.2
2016-05-12T01:28:25.931Z,36.49
2016-05-12T01:29:25.965Z,36.4
2016-05-12T01:30:25.828Z,36.3
2016-05-12T01:31:26.003Z,36.68
2016-05-12T01:32:26.036Z,36.58
2016-05-12T01:33:25.898Z,36.49
2016-05-12T01:34:26.088Z,36.49
2016-05-12T01:35:26.106Z,36.58
2016-05-12T01:36:25.984Z,36.78
2016-05-12T01:37:26.159Z,36.68
2016-05-12T01:38:26.194Z,36.78
2016-05-12T01:39:26.211Z,36.78
2016-05-12T01:40:26.245Z,36.76
2016-05-12T01:41:26.263Z,36.78
2016-05-12T01:42:26.298Z,36.95
2016-05-12T01:43:26.316Z,36.57
2016-05-12T01:44:26.349Z,36.66
2016-05-12T01:45:26.368Z,36.86
2016-05-12T01:46:26.402Z,36.76
2016-05-12T01:47:26.421Z,36.76
2016-05-12T01:48:26.438Z,36.76
2016-05-12T01:49:26.473Z,36.66
2016-05-12T01:50:26.491Z,36.57
2016-05-12T01:51:26.524Z,36.86
2016-05-12T01:52:26.543Z,36.38
2016-05-12T01:53:26.421Z,36.95
2016-05-12T01:54:26.595Z,36.95
2016-05-12T01:55:26.629Z,37.15
2016-05-12T01:56:26.648Z,36.95
2016-05-12T01:57:26.682Z,37.24
2016-05-12T01:58:26.700Z,36.76
2016-05-12T01:59:26.718Z,37.24
2016-05-12T02:00:26.768Z,37.05
2016-05-12T02:01:27.161Z,36.86
2016-05-12T02:02:26.803Z,37.15
2016-05-12T02:03:26.822Z,37.72
2016-05-12T02:04:26.857Z,37.34
2016-05-12T02:05:26.875Z,37.53
2016-05-12T02:06:26.908Z,37.34
2016-05-12T02:07:26.927Z,37.43
2016-05-12T02:08:26.961Z,37.72
2016-05-12T02:09:26.995Z,37.91
2016-05-12T02:10:27.013Z,37.91
2016-05-12T02:11:27.032Z,37.72
2016-05-12T02:12:26.925Z,37.72
2016-05-12T02:13:27.083Z,37.72
2016-05-12T02:14:27.102Z,37.62
2016-05-12T02:15:27.136Z,37.41
2016-05-12T02:16:27.013Z,37.72
2016-05-12T02:17:27.189Z,37.82
2016-05-12T02:18:27.051Z,37.05
2016-05-12T02:19:27.240Z,37.53
2016-05-12T02:20:27.260Z,37.51
2016-05-12T02:21:27.277Z,37.34
2016-05-12T02:22:27.312Z,37.32
2016-05-12T02:23:27.329Z,37.32
2016-05-12T02:24:27.363Z,37.32
2016-05-12T02:25:27.382Z,37.99
2016-05-12T02:26:27.401Z,38.09
2016-05-12T02:27:27.450Z,38.1
2016-05-12T02:28:27.468Z,38.18
2016-05-12T02:29:27.486Z,38.09
2016-05-12T02:30:27.348Z,38.09
2016-05-12T02:31:27.554Z,38.28
2016-05-12T02:32:27.557Z,38.28
2016-05-12T02:33:27.592Z,38.18
2016-05-12T02:34:27.625Z,38.28
2016-05-12T02:35:27.486Z,38.28
2016-05-12T02:36:27.506Z,38.28
2016-05-12T02:37:27.695Z,37.6
2016-05-12T02:38:27.729Z,38.28
2016-05-12T02:39:27.779Z,38.37
2016-05-12T02:40:27.766Z,37.7
2016-05-12T02:41:27.784Z,38.28
2016-05-12T02:42:27.803Z,38.47
2016-05-12T02:43:27.836Z,38.37
2016-05-12T02:44:27.746Z,38.28
2016-05-12T02:45:27.888Z,38.28
2016-05-12T02:46:27.922Z,38.37
2016-05-12T02:47:27.941Z,38.28
2016-05-12T02:48:27.960Z,37.89
2016-05-12T02:49:27.993Z,38.37
2016-05-12T02:50:27.855Z,38.18
2016-05-12T02:51:28.030Z,38.56
2016-05-12T02:52:28.064Z,38.56
2016-05-12T02:53:27.926Z,38.47
2016-05-12T02:54:28.116Z,38.37
2016-05-12T02:55:27.978Z,38.47
2016-05-12T02:56:28.153Z,38.47
2016-05-12T02:57:28.186Z,38.28
2016-05-12T02:58:28.204Z,38.37
2016-05-12T02:59:28.240Z,38.85
2016-05-12T03:00:28.257Z,38.66
2016-05-12T03:01:28.338Z,38.56
2016-05-12T03:02:28.309Z,38.66
2016-05-12T03:03:28.187Z,38.47
2016-05-12T03:04:28.361Z,38.64
2016-05-12T03:05:28.381Z,38.56
2016-05-12T03:06:28.414Z,38.66
2016-05-12T03:07:28.433Z,38.66
2016-05-12T03:08:28.466Z,38.83
2016-05-12T03:09:28.500Z,38.64
2016-05-12T03:10:28.503Z,38.95
2016-05-12T03:11:28.537Z,39.03
2016-05-12T03:12:28.571Z,39.03
2016-05-12T03:13:28.589Z,39.03
2016-05-12T03:14:28.608Z,39.03
2016-05-12T03:15:28.469Z,38.74
2016-05-12T03:16:28.675Z,38.93
2016-05-12T03:17:28.677Z,38.93
2016-05-12T03:18:28.713Z,38.93
2016-05-12T03:19:28.574Z,39.12
2016-05-12T03:20:28.608Z,39.12
2016-05-12T03:21:28.627Z,39.03
2016-05-12T03:22:28.801Z,38.83
2016-05-12T03:23:28.834Z,39.12
2016-05-12T03:24:28.853Z,39.12
2016-05-12T03:25:28.887Z,39.22
2016-05-12T03:26:28.905Z,39.22
2016-05-12T03:27:28.939Z,39.31
2016-05-12T03:28:28.957Z,39.41
2016-05-12T03:29:28.976Z,39.41
2016-05-12T03:30:29.009Z,39.22
2016-05-12T03:31:29.028Z,39.5
2016-05-12T03:32:29.046Z,39.41
2016-05-12T03:33:29.081Z,39.41
2016-05-12T03:34:29.098Z,39.5
2016-05-12T03:35:29.117Z,39.41
2016-05-12T03:36:29.150Z,39.41
2016-05-12T03:37:29.169Z,39.41
2016-05-12T03:38:29.203Z,39.7
2016-05-12T03:39:29.222Z,39.6
2016-05-12T03:40:29.256Z,39.5
2016-05-12T03:41:29.274Z,39.5
2016-05-12T03:42:29.307Z,39.5
2016-05-12T03:43:29.325Z,39.41
2016-05-12T03:44:29.344Z,39.41
2016-05-12T03:45:29.378Z,39.5
2016-05-12T03:46:29.396Z,39.5
2016-05-12T03:47:29.430Z,39.6
2016-05-12T03:48:29.449Z,39.6
2016-05-12T03:49:29.483Z,39.6
2016-05-12T03:50:29.501Z,39.79
2016-05-12T03:51:29.519Z,39.5
2016-05-12T03:52:29.554Z,39.89
2016-05-12T03:53:29.572Z,39.79
2016-05-12T03:54:29.590Z,39.89
2016-05-12T03:55:29.624Z,40.17
2016-05-12T03:56:29.642Z,39.89
2016-05-12T03:57:29.660Z,39.79
2016-05-12T03:58:29.695Z,39.87
2016-05-12T03:59:29.729Z,40.06
2016-05-12T04:00:29.747Z,39.77
2016-05-12T04:01:30.531Z,39.97
2016-05-12T04:02:29.799Z,39.97
2016-05-12T04:03:29.817Z,40.08
2016-05-12T04:04:29.836Z,40.06
2016-05-12T04:05:29.870Z,39.87
2016-05-12T04:06:29.888Z,40.06
2016-05-12T04:07:29.750Z,39.87
2016-05-12T04:08:29.940Z,39.87
2016-05-12T04:09:29.958Z,40.16
2016-05-12T04:10:29.992Z,39.97
2016-05-12T04:11:30.011Z,40.35
2016-05-12T04:12:30.045Z,40.35
2016-05-12T04:13:30.063Z,40.16
2016-05-12T04:14:29.925Z,40.25
2016-05-12T04:15:30.115Z,40.35
2016-05-12T04:16:29.977Z,40.25
2016-05-12T04:17:30.152Z,40.35
2016-05-12T04:18:30.185Z,40.35
2016-05-12T04:19:30.205Z,40.35
2016-05-12T04:20:30.066Z,40.35
2016-05-12T04:21:30.257Z,40.35
2016-05-12T04:22:30.274Z,40.25
2016-05-12T04:23:30.308Z,40.35
2016-05-12T04:24:30.326Z,40.35
2016-05-12T04:25:30.360Z,40.44
2016-05-12T04:26:30.379Z,40.83
2016-05-12T04:27:30.398Z,40.83
2016-05-12T04:28:30.415Z,40.25
2016-05-12T04:29:30.449Z,40.64
2016-05-12T04:30:30.468Z,40.73
2016-05-12T04:31:30.502Z,40.64
2016-05-12T04:32:30.520Z,40.83
2016-05-12T04:33:30.398Z,40.83
2016-05-12T04:34:30.573Z,40.83
2016-05-12T04:35:30.606Z,40.83
2016-05-12T04:36:30.468Z,40.92
2016-05-12T04:37:30.642Z,40.73
2016-05-12T04:38:30.678Z,40.92
2016-05-12T04:39:30.540Z,40.73
2016-05-12T04:40:30.714Z,40.83
2016-05-12T04:41:30.591Z,40.83
2016-05-12T04:42:30.766Z,41.02
2016-05-12T04:43:30.783Z,41.02
2016-05-12T04:44:30.819Z,40.92
2016-05-12T04:45:30.837Z,40.92
2016-05-12T04:46:31.433Z,41.02
2016-05-12T04:47:30.889Z,41.02
2016-05-12T04:48:30.907Z,40.92
2016-05-12T04:49:30.785Z,41.02
2016-05-12T04:50:30.974Z,40.92
2016-05-12T04:51:30.838Z,40.92
2016-05-12T04:52:31.027Z,40.92
2016-05-12T04:53:31.046Z,41.02
2016-05-12T04:54:31.063Z,41.31
2016-05-12T04:55:31.082Z,41.11
2016-05-12T04:56:31.101Z,41.11
2016-05-12T04:57:31.135Z,40.92
2016-05-12T04:58:31.152Z,40.92
2016-05-12T04:59:31.171Z,41.5
2016-05-12T05:00:31.205Z,41.5
2016-05-12T05:01:31.239Z,41.6
2016-05-12T05:02:31.257Z,41.78
2016-05-12T05:03:31.275Z,41.6
2016-05-12T05:04:31.310Z,41.69
2016-05-12T05:05:31.328Z,41.97
2016-05-12T05:06:31.346Z,41.88
2016-05-12T05:07:31.365Z,41.6
2016-05-12T05:08:31.398Z,41.97
2016-05-12T05:09:31.417Z,41.97
2016-05-12T05:10:31.434Z,42.07
2016-05-12T05:11:31.469Z,41.97
2016-05-12T05:12:31.331Z,41.97
2016-05-12T05:13:31.506Z,41.97
2016-05-12T05:14:31.539Z,41.97
2016-05-12T05:15:31.573Z,42.17
2016-05-12T05:16:31.638Z,42.27
2016-05-12T05:17:31.610Z,42.17
2016-05-12T05:18:31.644Z,42.17
2016-05-12T05:19:31.663Z,42.1
2016-05-12T05:20:31.680Z,42.27
2016-05-12T05:21:31.714Z,42.1
2016-05-12T05:22:31.733Z,42.1
2016-05-12T05:23:31.907Z,42.17
2016-05-12T05:24:31.786Z,42.19
2016-05-12T05:25:31.804Z,42.19
2016-05-12T05:26:31.822Z,42.29
2016-05-12T05:27:31.855Z,42.19
2016-05-12T05:28:31.874Z,42.29
2016-05-12T05:29:31.907Z,42.19
2016-05-12T05:30:31.926Z,42.29
2016-05-12T05:31:31.866Z,42.1
2016-05-12T05:32:31.994Z,42.1
2016-05-12T05:33:31.856Z,42.1
2016-05-12T05:34:32.031Z,42.19
2016-05-12T05:35:32.049Z,42.19
2016-05-12T05:36:32.067Z,42.29
2016-05-12T05:37:32.086Z,42.47
2016-05-12T05:38:32.119Z,42.38
2016-05-12T05:39:32.138Z,42.47
2016-05-12T05:40:32.173Z,42.47
2016-05-12T05:41:32.190Z,42.47
2016-05-12T05:42:32.225Z,42.67
2016-05-12T05:43:32.242Z,42.67
2016-05-12T05:44:32.275Z,42.67
2016-05-12T05:45:32.295Z,42.67
2016-05-12T05:46:32.313Z,42.67
2016-05-12T05:47:32.331Z,42.77
2016-05-12T05:48:32.428Z,42.67
2016-05-12T05:49:32.446Z,43.05
2016-05-12T05:50:32.449Z,43.34
2016-05-12T05:51:32.467Z,42.96
2016-05-12T05:52:32.469Z,43.24
2016-05-12T05:53:32.457Z,43.15
2016-05-12T05:54:32.615Z,43.05
2016-05-12T05:55:32.493Z,43.24
2016-05-12T05:56:32.497Z,43.05
2016-05-12T05:57:32.671Z,43.15
2016-05-12T05:58:32.501Z,43.24
2016-05-12T05:59:32.676Z,43.44
2016-05-12T06:00:32.726Z,43.46
2016-05-12T06:01:32.729Z,43.07
2016-05-12T06:02:32.590Z,42.6
2016-05-12T06:03:32.734Z,42.5
2016-05-12T06:04:32.752Z,42.5
2016-05-12T06:05:32.787Z,42.6
2016-05-12T06:06:32.804Z,42.6
2016-05-12T06:07:32.838Z,42.69
2016-05-12T06:08:32.856Z,42.5
2016-05-12T06:09:32.875Z,42.6
2016-05-12T06:10:32.892Z,42.69
2016-05-12T06:11:32.928Z,42.69
2016-05-12T06:12:32.789Z,42.6
2016-05-12T06:13:32.964Z,42.69
2016-05-12T06:14:32.997Z,42.6
2016-05-12T06:15:32.875Z,42.6
2016-05-12T06:16:33.253Z,42.69
2016-05-12T06:17:33.084Z,42.71
2016-05-12T06:18:33.086Z,42.5
2016-05-12T06:19:33.120Z,42.69
2016-05-12T06:20:33.155Z,42.71
2016-05-12T06:21:33.172Z,42.52
2016-05-12T06:22:33.191Z,42.61
2016-05-12T06:23:33.225Z,42.61
2016-05-12T06:24:33.243Z,42.61
2016-05-12T06:25:33.105Z,42.81
2016-05-12T06:26:33.405Z,42.81
2016-05-12T06:27:33.392Z,42.9
2016-05-12T06:28:33.441Z,42.81
2016-05-12T06:29:33.444Z,42.61
2016-05-12T06:30:33.447Z,42.61
2016-05-12T06:31:33.465Z,42.61
2016-05-12T06:32:33.468Z,42.64
2016-05-12T06:33:33.470Z,42.64
2016-05-12T06:34:33.443Z,42.64
2016-05-12T06:35:33.554Z,42.93
2016-05-12T06:36:33.540Z,42.83
2016-05-12T06:37:33.560Z,42.73
2016-05-12T06:38:33.671Z,42.93
2016-05-12T06:39:33.690Z,42.73
2016-05-12T06:40:33.724Z,42.93
2016-05-12T06:41:33.727Z,42.83
2016-05-12T06:42:33.729Z,42.83
2016-05-12T06:43:33.748Z,42.83
2016-05-12T06:44:33.750Z,43.21
2016-05-12T06:45:33.753Z,42.73
2016-05-12T06:46:33.850Z,43.14
2016-05-12T06:47:33.742Z,43.23
2016-05-12T06:48:33.839Z,43.14
2016-05-12T06:49:33.857Z,43.23
2016-05-12T06:50:33.918Z,43.14
2016-05-12T06:51:33.996Z,43.14
2016-05-12T06:52:34.056Z,43.45
2016-05-12T06:53:34.133Z,43.33
2016-05-12T06:54:34.195Z,42.87
2016-05-12T06:55:34.088Z,42.58
2016-05-12T06:56:34.279Z,42.68
2016-05-12T06:57:34.312Z,42.49
2016-05-12T06:58:34.361Z,42.58
2016-05-12T06:59:34.394Z,42.77
2016-05-12T07:00:34.434Z,42.58
2016-05-12T07:01:34.505Z,42.49
2016-05-12T07:02:34.481Z,42.39
2016-05-12T07:03:34.365Z,42.22
2016-05-12T07:04:34.559Z,42.32
2016-05-12T07:05:34.580Z,42.12
2016-05-12T07:06:34.601Z,42.12
2016-05-12T07:07:34.637Z,42.03
2016-05-12T07:08:34.657Z,42.03
2016-05-12T07:09:34.693Z,41.93
2016-05-12T07:10:34.712Z,41.93
2016-05-12T07:11:34.747Z,41.83
2016-05-12T07:12:34.781Z,41.86
2016-05-12T07:13:34.800Z,41.76
2016-05-12T07:14:34.819Z,41.18
2016-05-12T07:15:34.838Z,40.99
2016-05-12T07:16:35.278Z,41.18
2016-05-12T07:17:34.891Z,41.08
2016-05-12T07:18:34.925Z,41.08
2016-05-12T07:19:34.944Z,40.99
2016-05-12T07:20:34.978Z,40.91
2016-05-12T07:21:34.995Z,40.53
2016-05-12T07:22:35.030Z,40.34
2016-05-12T07:23:35.048Z,40.91
2016-05-12T07:24:35.067Z,40.81
2016-05-12T07:25:35.101Z,40.53
2016-05-12T07:26:35.119Z,40.45
2016-05-12T07:27:35.136Z,40.07
2016-05-12T07:28:35.172Z,39.97
2016-05-12T07:29:35.205Z,40.07
2016-05-12T07:30:35.239Z,39.87
2016-05-12T07:31:35.258Z,39.78
2016-05-12T07:32:35.275Z,39.78
2016-05-12T07:33:35.294Z,39.78
2016-05-12T07:34:35.328Z,39.7
2016-05-12T07:35:35.362Z,39.51
2016-05-12T07:36:35.380Z,39.31
2016-05-12T07:37:35.399Z,39.22
2016-05-12T07:38:35.432Z,39.41
2016-05-12T07:39:35.451Z,39.14
2016-05-12T07:40:35.501Z,39.24
2016-05-12T07:41:35.347Z,38.85
2016-05-12T07:42:35.568Z,38.76
2016-05-12T07:43:35.399Z,38.66
2016-05-12T07:44:35.589Z,38.66
2016-05-12T07:45:35.624Z,38.28
2016-05-12T07:46:35.876Z,38.49
2016-05-12T07:47:35.520Z,38.29
2016-05-12T07:48:35.803Z,38.2
2016-05-12T07:49:35.806Z,38.01
2016-05-12T07:50:35.856Z,37.52
2016-05-12T07:51:35.842Z,37.71
2016-05-12T07:52:35.721Z,37.81
2016-05-12T07:53:35.926Z,37.83
2016-05-12T07:54:35.929Z,37.83
2016-05-12T07:55:35.931Z,37.54
2016-05-12T07:56:35.934Z,37.83
2016-05-12T07:57:35.953Z,37.35
2016-05-12T07:58:35.799Z,36.96
2016-05-12T07:59:36.083Z,36.96
2016-05-12T08:00:36.069Z,36.88
2016-05-12T08:01:36.541Z,36.98
2016-05-12T08:02:36.122Z,36.69
2016-05-12T08:03:36.125Z,36.59
2016-05-12T08:04:36.002Z,36.59
2016-05-12T08:05:36.146Z,36.5
2016-05-12T08:06:36.196Z,36.22
2016-05-12T08:07:36.058Z,36.32
2016-05-12T08:08:36.232Z,35.74
2016-05-12T08:09:36.249Z,35.74
2016-05-12T08:10:36.285Z,35.74
2016-05-12T08:11:36.303Z,35.57
2016-05-12T08:12:36.180Z,35.06
2016-05-12T08:13:36.449Z,35.37
2016-05-12T08:14:36.451Z,35.47
2016-05-12T08:15:36.626Z,35.18
2016-05-12T08:16:36.707Z,35.08
2016-05-12T08:17:36.521Z,34.99
2016-05-12T08:18:36.619Z,34.81
2016-05-12T08:19:36.465Z,34.91
2016-05-12T08:20:36.639Z,34.23
2016-05-12T08:21:36.783Z,34.42
2016-05-12T08:22:36.770Z,34.23
2016-05-12T08:23:36.787Z,34.42
2016-05-12T08:24:36.634Z,33.95
2016-05-12T08:25:36.122Z,34.15
2016-05-12T08:26:36.811Z,34.05
2016-05-12T08:27:36.814Z,33.76
2016-05-12T08:28:36.817Z,33.67
2016-05-12T08:29:36.897Z,33.76
2016-05-12T08:30:36.838Z,33.67
2016-05-12T08:31:37.153Z,33.67
2016-05-12T08:32:36.891Z,33.2
2016-05-12T08:33:36.925Z,33.29
2016-05-12T08:34:36.943Z,33.2
2016-05-12T08:35:36.805Z,32.33
2016-05-12T08:36:36.995Z,32.52
2016-05-12T08:37:37.029Z,32.64
2016-05-12T08:38:37.047Z,32.44
2016-05-12T08:39:37.081Z,32.24
2016-05-12T08:40:37.099Z,32.06
2016-05-12T08:41:37.133Z,32.15
2016-05-12T08:42:37.167Z,31.86
2016-05-12T08:43:37.185Z,32.15
2016-05-12T08:44:37.219Z,31.59
2016-05-12T08:45:37.097Z,31.29
2016-05-12T08:46:37.428Z,31.49
2016-05-12T08:47:37.306Z,31.68
2016-05-12T08:48:37.340Z,31.59
2016-05-12T08:49:37.357Z,31.2
2016-05-12T08:50:37.392Z,31.6
2016-05-12T08:51:37.426Z,30.92
2016-05-12T08:52:37.459Z,31.02
2016-05-12T08:53:37.478Z,30.44
2016-05-12T08:54:37.512Z,30.34
2016-05-12T08:55:37.373Z,30.54
2016-05-12T08:56:37.565Z,30.44
2016-05-12T08:57:37.598Z,30.54
2016-05-12T08:58:37.491Z,30.34
2016-05-12T08:59:37.495Z,30.16
2016-05-12T09:00:37.528Z,30.35
2016-05-12T09:01:38.561Z,30.16
2016-05-12T09:02:37.737Z,29.97
2016-05-12T09:03:37.770Z,29.98
2016-05-12T09:04:37.789Z,29.88
2016-05-12T09:05:37.838Z,29.79
2016-05-12T09:06:37.700Z,29.69
2016-05-12T09:07:37.875Z,29.5
2016-05-12T09:08:37.752Z,29.5
2016-05-12T09:09:37.943Z,29.4
2016-05-12T09:10:37.977Z,29.02
2016-05-12T09:11:37.839Z,29.32
2016-05-12T09:12:38.029Z,28.93
2016-05-12T09:13:38.063Z,29.22
2016-05-12T09:14:38.096Z,29.12
2016-05-12T09:15:38.116Z,29.12
2016-05-12T09:16:38.165Z,29.12
2016-05-12T09:17:38.183Z,29.02
2016-05-12T09:18:38.202Z,28.55
2016-05-12T09:19:38.079Z,28.75
2016-05-12T09:20:38.270Z,28.94
2016-05-12T09:21:38.319Z,28.75
2016-05-12T09:22:38.321Z,28.36
2016-05-12T09:23:38.356Z,28.28
2016-05-12T09:24:38.233Z,28.17
2016-05-12T09:25:38.423Z,28.08
2016-05-12T09:26:38.442Z,28.08
2016-05-12T09:27:38.475Z,27.98
2016-05-12T09:28:38.509Z,27.69
2016-05-12T09:29:38.544Z,27.89
2016-05-12T09:30:38.578Z,27.7
2016-05-12T09:31:38.455Z,27.8
2016-05-12T09:32:38.630Z,27.42
2016-05-12T09:33:38.492Z,27.32
2016-05-12T09:34:38.525Z,27.33
2016-05-12T09:35:38.716Z,27.23
2016-05-12T09:36:38.734Z,26.84
2016-05-12T09:37:38.769Z,27.23
2016-05-12T09:38:38.818Z,26.84
2016-05-12T09:39:38.852Z,26.37
2016-05-12T09:40:38.870Z,26.76
2016-05-12T09:41:38.904Z,26.57
2016-05-12T09:42:38.782Z,26.37
2016-05-12T09:43:38.956Z,26.18
2016-05-12T09:44:38.990Z,25.98
2016-05-12T09:45:39.024Z,25.98
2016-05-12T09:46:39.620Z,25.99
2016-05-12T09:47:39.093Z,25.8
2016-05-12T09:48:38.954Z,25.8
2016-05-12T09:49:39.144Z,25.31
2016-05-12T09:50:39.022Z,25.12
2016-05-12T09:51:39.212Z,24.93
2016-05-12T09:52:39.246Z,24.45
2016-05-12T09:53:40.576Z,24.65
2016-05-12T09:54:39.142Z,24.26
2016-05-12T09:55:39.332Z,24.16
2016-05-12T09:56:39.367Z,23.78
2016-05-12T09:57:39.400Z,23.39
2016-05-12T09:58:39.293Z,23
2016-05-12T09:59:39.295Z,23
2016-05-12T10:00:39.486Z,22.8
2016-05-12T10:01:39.395Z,23.1
2016-05-12T10:02:39.553Z,23
2016-05-12T10:03:39.589Z,22.9
2016-05-12T10:04:39.467Z,23.1
2016-05-12T10:05:39.500Z,22.42
2016-05-12T10:06:39.769Z,22.62
2016-05-12T10:07:39.802Z,22.42
2016-05-12T10:08:39.852Z,22.13
2016-05-12T10:09:39.839Z,22.42
2016-05-12T10:10:39.857Z,22.81
2016-05-12T10:11:39.828Z,22.13
2016-05-12T10:12:39.877Z,22.24
2016-05-12T10:13:39.990Z,21.56
2016-05-12T10:14:39.961Z,21.26
2016-05-12T10:15:39.979Z,21.46
2016-05-12T10:16:40.232Z,21.07
2016-05-12T10:17:40.032Z,21.17
2016-05-12T10:18:40.066Z,20.78
2016-05-12T10:19:40.116Z,20.58
2016-05-12T10:20:40.134Z,20.2
2016-05-12T10:21:40.152Z,20.2
2016-05-12T10:22:40.186Z,20.3
2016-05-12T10:23:40.221Z,20.21
2016-05-12T10:24:40.254Z,19.82
2016-05-12T10:25:40.288Z,19.73
2016-05-12T10:26:40.322Z,19.73
2016-05-12T10:27:40.356Z,19.63
2016-05-12T10:28:40.234Z,19.73
2016-05-12T10:29:40.439Z,19.73
2016-05-12T10:30:40.442Z,19.53
2016-05-12T10:31:40.413Z,19.73
2016-05-12T10:32:40.509Z,19.64
2016-05-12T10:33:40.545Z,19.64
2016-05-12T10:34:40.577Z,19.34
2016-05-12T10:35:40.611Z,18.95
2016-05-12T10:36:40.661Z,18.76
2016-05-12T10:37:40.680Z,18.85
2016-05-12T10:38:40.714Z,18.07
2016-05-12T10:39:40.747Z,18.76
2016-05-12T10:40:40.781Z,18.46
2016-05-12T10:41:40.815Z,18.27
2016-05-12T10:42:40.849Z,18.66
2016-05-12T10:43:40.883Z,18.27
2016-05-12T10:44:40.761Z,18.27
2016-05-12T10:45:40.794Z,18.27
2016-05-12T10:46:40.969Z,18.37
2016-05-12T10:47:41.019Z,18.27
2016-05-12T10:48:41.053Z,18.66
2016-05-12T10:49:41.071Z,18.47
2016-05-12T10:50:41.104Z,18.27
2016-05-12T10:51:41.155Z,18.27
2016-05-12T10:52:41.174Z,18.47
2016-05-12T10:53:41.066Z,18.37
2016-05-12T10:54:41.241Z,18.47
2016-05-12T10:55:41.275Z,18.37
2016-05-12T10:56:41.309Z,17.79
2016-05-12T10:57:41.187Z,17.98
2016-05-12T10:58:41.377Z,17.88
2016-05-12T10:59:41.411Z,17.69
2016-05-12T11:00:41.553Z,17.79
2016-05-12T11:01:41.572Z,17.88
2016-05-12T11:02:41.591Z,17.9
2016-05-12T11:03:41.561Z,17.6
2016-05-12T11:04:41.424Z,17.9
2016-05-12T11:05:41.630Z,17.6
2016-05-12T11:06:41.758Z,17.8
2016-05-12T11:07:41.792Z,17.6
2016-05-12T11:08:41.811Z,17.6
2016-05-12T11:09:41.812Z,17.5
2016-05-12T11:10:41.659Z,17.41
2016-05-12T11:11:41.819Z,17.21
2016-05-12T11:12:41.867Z,17.31
2016-05-12T11:13:41.886Z,17.41
2016-05-12T11:14:41.919Z,17.11
2016-05-12T11:15:41.954Z,17.31
2016-05-12T11:16:41.988Z,17.21
2016-05-12T11:17:42.021Z,17.11
2016-05-12T11:18:42.055Z,16.82
2016-05-12T11:19:42.090Z,17.11
2016-05-12T11:20:42.138Z,17.02
2016-05-12T11:21:42.157Z,17.21
2016-05-12T11:22:42.191Z,16.72
2016-05-12T11:23:42.240Z,16.62
2016-05-12T11:24:42.274Z,16.42
2016-05-12T11:25:42.293Z,16.23
2016-05-12T11:26:42.343Z,16.63
2016-05-12T11:27:42.439Z,15.94
2016-05-12T11:28:42.410Z,16.05
2016-05-12T11:29:42.429Z,15.95
2016-05-12T11:30:42.588Z,16.14
2016-05-12T11:31:43.122Z,15.95
2016-05-12T11:32:42.545Z,16.24
2016-05-12T11:33:42.581Z,15.55
2016-05-12T11:34:42.458Z,15.36
2016-05-12T11:35:42.491Z,15.16
2016-05-12T11:36:42.839Z,15.06
2016-05-12T11:37:42.575Z,15.17
2016-05-12T11:38:42.750Z,15.47
2016-05-12T11:39:42.783Z,15.47
2016-05-12T11:40:42.818Z,15.17
2016-05-12T11:41:42.852Z,15.27
2016-05-12T11:42:42.885Z,15.08
2016-05-12T11:43:42.936Z,14.87
2016-05-12T11:44:42.969Z,14.97
2016-05-12T11:45:42.988Z,15.17
2016-05-12T11:46:43.053Z,14.68
2016-05-12T11:47:43.071Z,14.78
2016-05-12T11:48:43.105Z,14.78
2016-05-12T11:49:43.138Z,14.97
2016-05-12T11:50:43.174Z,14.58
2016-05-12T11:51:43.207Z,14.68
2016-05-12T11:52:43.115Z,14.68
2016-05-12T11:53:43.274Z,15.08
2016-05-12T11:54:43.152Z,14.97
2016-05-12T11:55:43.343Z,15.17
2016-05-12T11:56:43.392Z,15.08
2016-05-12T11:57:43.270Z,14.68
2016-05-12T11:58:43.460Z,14.68
2016-05-12T11:59:43.478Z,14.58
2016-05-12T12:00:43.528Z,14.68
2016-05-12T12:01:43.406Z,14.59
2016-05-12T12:02:43.596Z,14.79
2016-05-12T12:03:43.630Z,14.2
2016-05-12T12:04:43.679Z,13.71
2016-05-12T12:05:43.697Z,13.81
2016-05-12T12:06:43.731Z,13.71
2016-05-12T12:07:43.765Z,13.32
2016-05-12T12:08:43.799Z,13.32
2016-05-12T12:09:43.678Z,13.32
2016-05-12T12:10:43.883Z,13.42
2016-05-12T12:11:43.900Z,13.52
2016-05-12T12:12:43.966Z,13.42
2016-05-12T12:13:43.985Z,13.23
2016-05-12T12:14:44.018Z,13.32
2016-05-12T12:15:44.036Z,12.74
2016-05-12T12:16:44.086Z,12.93
2016-05-12T12:17:43.964Z,12.84
2016-05-12T12:18:44.014Z,13.13
2016-05-12T12:19:44.204Z,13.42
2016-05-12T12:20:44.238Z,12.84
2016-05-12T12:21:44.256Z,13.23
2016-05-12T12:22:44.306Z,13.04
2016-05-12T12:23:44.387Z,13.13
2016-05-12T12:24:44.390Z,13.23
2016-05-12T12:25:44.407Z,13.43
2016-05-12T12:26:44.441Z,12.95
2016-05-12T12:27:44.476Z,13.53
2016-05-12T12:28:44.509Z,13.24
2016-05-12T12:29:44.543Z,12.85
2016-05-12T12:30:44.592Z,12.55
2016-05-12T12:31:44.658Z,12.45
2016-05-12T12:32:44.662Z,12.95
2016-05-12T12:33:44.695Z,12.85
2016-05-12T12:34:44.744Z,12.95
2016-05-12T12:35:44.762Z,13.04
2016-05-12T12:36:44.797Z,13.04
2016-05-12T12:37:44.846Z,13.04
2016-05-12T12:38:44.881Z,13.04
2016-05-12T12:39:44.914Z,13.04
2016-05-12T12:40:44.948Z,13.13
2016-05-12T12:41:44.982Z,12.84
2016-05-12T12:42:45.031Z,13.23
2016-05-12T12:43:45.066Z,12.84
2016-05-12T12:44:45.099Z,12.94
2016-05-12T12:45:45.133Z,13.23
2016-05-12T12:46:45.699Z,13.53
2016-05-12T12:47:45.201Z,13.34
2016-05-12T12:48:45.250Z,12.85
2016-05-12T12:49:45.284Z,12.95
2016-05-12T12:50:45.303Z,12.65
2016-05-12T12:51:45.196Z,12.65
2016-05-12T12:52:45.386Z,12.84
2016-05-12T12:53:45.421Z,12.94
2016-05-12T12:54:45.516Z,13.04
2016-05-12T12:55:45.488Z,12.94